createdAt,value
2019-03-01T00:00:52.309Z,5.43
2019-03-01T00:03:18.613Z,4.70
2019-03-01T00:06:09.488Z,5.20
2019-03-01T00:09:05.301Z,5.10
2019-03-01T00:11:46.772Z,3.93
2019-03-01T00:14:19.448Z,5.37
2019-03-01T00:17:01.288Z,4.77
2019-03-01T00:19:46.121Z,5.47
2019-03-01T00:22:25.271Z,5.50
2019-03-01T00:24:57.872Z,3.57
2019-03-01T00:27:39.705Z,4.33
2019-03-01T00:30:36.361Z,5.23
2019-03-01T00:33:15.528Z,4.87
2019-03-01T00:35:54.266Z,3.53
2019-03-01T00:38:58.075Z,4.03
2019-03-01T00:41:33.871Z,3.57
2019-03-01T00:44:19.826Z,5.43
2019-03-01T00:46:45.986Z,3.70
2019-03-01T00:49:12.260Z,4.77
2019-03-01T00:51:38.483Z,4.20
2019-03-01T00:54:04.650Z,3.63
2019-03-01T00:56:30.934Z,3.77
2019-03-01T00:58:57.295Z,5.00
2019-03-01T01:01:23.556Z,12.47
2019-03-01T01:03:49.834Z,6.27
2019-03-01T01:06:16.139Z,7.07
2019-03-01T01:08:42.399Z,4.33
2019-03-01T01:11:08.558Z,5.10
2019-03-01T01:13:34.877Z,11.47
2019-03-01T01:16:01.014Z,5.93
2019-03-01T01:18:27.190Z,5.03
2019-03-01T01:20:53.495Z,3.77
2019-03-01T01:23:19.769Z,5.37
2019-03-01T01:25:45.935Z,6.50
2019-03-01T01:28:12.285Z,8.73
2019-03-01T01:30:38.554Z,4.47
2019-03-01T01:33:04.741Z,5.60
2019-03-01T01:35:31.029Z,8.57
2019-03-01T01:37:57.286Z,6.43
2019-03-01T01:40:23.558Z,5.43
2019-03-01T01:42:49.768Z,6.57
2019-03-01T01:45:16.076Z,5.07
2019-03-01T01:47:42.322Z,7.27
2019-03-01T01:50:08.627Z,4.83
2019-03-01T01:52:34.900Z,9.40
2019-03-01T01:55:01.077Z,10.80
2019-03-01T01:57:27.301Z,7.27
2019-03-01T01:59:53.518Z,6.07
2019-03-01T02:02:19.807Z,7.13
2019-03-01T02:04:46.098Z,6.63
2019-03-01T02:07:12.265Z,7.00
2019-03-01T02:09:38.935Z,8.27
2019-03-01T02:12:05.237Z,4.73
2019-03-01T02:14:31.401Z,7.93
2019-03-01T02:16:57.671Z,7.00
2019-03-01T02:19:23.985Z,7.40
2019-03-01T02:21:50.250Z,6.93
2019-03-01T02:24:16.427Z,6.80
2019-03-01T02:26:42.733Z,7.47
2019-03-01T02:29:09.332Z,7.03
2019-03-01T02:31:36.551Z,10.70
2019-03-01T02:34:02.843Z,10.27
2019-03-01T02:36:29.020Z,7.87
2019-03-01T02:38:55.179Z,8.60
2019-03-01T02:41:21.488Z,7.90
2019-03-01T02:43:47.774Z,12.67
2019-03-01T02:46:13.946Z,6.57
2019-03-01T02:48:40.238Z,9.10
2019-03-01T02:51:06.402Z,9.93
2019-03-01T02:53:32.572Z,8.40
2019-03-01T02:55:58.993Z,7.30
2019-03-01T02:58:25.265Z,14.60
2019-03-01T03:00:51.555Z,14.23
2019-03-01T03:03:17.749Z,8.90
2019-03-01T03:05:52.052Z,7.00
2019-03-01T03:08:18.212Z,11.33
2019-03-01T03:10:44.407Z,7.83
2019-03-01T03:13:10.689Z,9.97
2019-03-01T03:15:39.777Z,9.43
2019-03-01T03:18:05.996Z,7.30
2019-03-01T03:20:32.257Z,9.23
2019-03-01T03:22:58.540Z,8.40
2019-03-01T03:25:24.777Z,8.13
2019-03-01T03:27:50.919Z,10.77
2019-03-01T03:30:18.606Z,8.80
2019-03-01T03:32:44.913Z,9.63
2019-03-01T03:35:11.121Z,12.23
2019-03-01T03:37:37.349Z,9.37
2019-03-01T03:40:07.272Z,10.03
2019-03-01T03:42:33.425Z,8.90
2019-03-01T03:44:59.588Z,7.07
2019-03-01T03:47:25.943Z,8.90
2019-03-01T03:49:52.200Z,10.77
2019-03-01T03:52:18.376Z,8.97
2019-03-01T03:54:44.684Z,7.90
2019-03-01T03:57:10.956Z,8.93
2019-03-01T03:59:37.120Z,6.63
2019-03-01T04:02:03.512Z,10.20
2019-03-01T04:04:29.778Z,10.50
2019-03-01T04:06:55.966Z,10.73
2019-03-01T04:09:22.262Z,8.87
2019-03-01T04:11:48.546Z,10.07
2019-03-01T04:14:14.850Z,10.33
2019-03-01T04:16:41.064Z,11.90
2019-03-01T04:19:07.341Z,10.00
2019-03-01T04:21:33.617Z,11.93
2019-03-01T04:23:59.844Z,9.30
2019-03-01T04:26:26.096Z,10.60
2019-03-01T04:28:52.377Z,9.13
2019-03-01T04:31:18.555Z,10.93
2019-03-01T04:33:44.827Z,7.33
2019-03-01T04:36:11.109Z,6.80
2019-03-01T04:38:37.318Z,9.63
2019-03-01T04:41:03.492Z,10.27
2019-03-01T04:43:29.773Z,9.20
2019-03-01T04:45:55.981Z,12.80
2019-03-01T04:48:22.251Z,11.70
2019-03-01T04:50:48.539Z,13.57
2019-03-01T04:53:14.838Z,11.43
2019-03-01T04:55:41.106Z,12.67
2019-03-01T04:58:07.390Z,10.97
2019-03-01T05:00:33.701Z,10.97
2019-03-01T05:02:59.979Z,13.33
2019-03-01T05:05:26.149Z,17.53
2019-03-01T05:07:52.468Z,10.97
2019-03-01T05:10:18.752Z,13.90
2019-03-01T05:12:45.025Z,11.63
2019-03-01T05:15:14.655Z,10.90
2019-03-01T05:17:41.058Z,12.80
2019-03-01T05:20:07.355Z,12.80
2019-03-01T05:22:33.634Z,18.40
2019-03-01T05:24:59.802Z,11.03
2019-03-01T05:27:26.072Z,11.83
2019-03-01T05:29:52.616Z,13.53
2019-03-01T05:32:18.866Z,15.47
2019-03-01T05:34:45.141Z,10.73
2019-03-01T05:37:11.455Z,12.77
2019-03-01T05:39:37.634Z,12.87
2019-03-01T05:42:03.828Z,13.53
2019-03-01T05:44:30.144Z,12.13
2019-03-01T05:46:56.342Z,11.27
2019-03-01T05:49:22.504Z,13.20
2019-03-01T05:51:48.808Z,13.17
2019-03-01T05:54:15.076Z,13.57
2019-03-01T05:56:41.340Z,14.00
2019-03-01T05:59:16.202Z,18.50
2019-03-01T06:01:46.073Z,13.07
2019-03-01T06:04:23.576Z,12.37
2019-03-01T06:07:05.392Z,20.63
2019-03-01T06:09:38.318Z,13.60
2019-03-01T06:12:09.144Z,13.80
2019-03-01T06:14:57.100Z,14.83
2019-03-01T06:17:32.361Z,18.97
2019-03-01T06:20:02.286Z,17.50
2019-03-01T06:22:41.024Z,18.10
2019-03-01T06:25:20.049Z,12.40
2019-03-01T06:28:08.120Z,16.53
2019-03-01T06:30:40.684Z,15.10
2019-03-01T06:33:28.360Z,15.30
2019-03-01T06:36:02.966Z,15.40
2019-03-01T06:39:04.697Z,14.87
2019-03-01T06:42:06.175Z,16.87
2019-03-01T06:44:38.812Z,16.27
2019-03-01T06:47:20.300Z,14.73
2019-03-01T06:49:48.407Z,23.13
2019-03-01T06:52:15.189Z,21.00
2019-03-01T06:54:41.404Z,18.23
2019-03-01T06:57:07.584Z,18.43
2019-03-01T06:59:33.874Z,19.87
2019-03-01T07:02:00.186Z,18.87
2019-03-01T07:04:26.501Z,19.30
2019-03-01T07:06:52.663Z,14.90
2019-03-01T07:09:18.981Z,18.77
2019-03-01T07:11:45.242Z,21.13
2019-03-01T07:14:11.440Z,26.33
2019-03-01T07:16:37.736Z,21.80
2019-03-01T07:19:04.016Z,23.87
2019-03-01T07:21:30.194Z,19.53
2019-03-01T07:23:56.414Z,23.77
2019-03-01T07:26:22.778Z,24.87
2019-03-01T07:28:49.058Z,27.73
2019-03-01T07:31:15.364Z,17.97
2019-03-01T07:33:41.658Z,22.47
2019-03-01T07:36:08.003Z,22.63
2019-03-01T07:38:34.221Z,21.13
2019-03-01T07:41:00.492Z,21.37
2019-03-01T07:43:26.764Z,25.00
2019-03-01T07:45:53.165Z,21.37
2019-03-01T07:48:19.325Z,16.63
2019-03-01T07:50:45.910Z,22.13
2019-03-01T07:53:12.212Z,23.47
2019-03-01T07:55:38.378Z,22.77
2019-03-01T07:58:04.660Z,19.00
2019-03-01T08:00:30.856Z,25.60
2019-03-01T08:02:57.186Z,15.33
2019-03-01T08:05:23.455Z,18.33
2019-03-01T08:07:56.086Z,24.90
2019-03-01T08:10:22.538Z,27.20
2019-03-01T08:12:47.438Z,22.23
2019-03-01T08:15:15.119Z,22.90
2019-03-01T08:17:41.277Z,25.67
2019-03-01T08:20:10.451Z,22.67
2019-03-01T08:22:47.472Z,25.27
2019-03-01T08:25:07.025Z,20.57
2019-03-01T08:27:33.312Z,25.53
2019-03-01T08:29:59.506Z,23.03
2019-03-01T08:32:27.462Z,22.13
2019-03-01T08:34:54.696Z,25.40
2019-03-01T08:37:21.173Z,25.83
2019-03-01T08:39:49.605Z,23.77
2019-03-01T08:42:15.393Z,24.17
2019-03-01T08:44:41.709Z,25.17
2019-03-01T08:47:07.977Z,27.80
2019-03-01T08:49:34.157Z,22.63
2019-03-01T08:52:01.420Z,22.13
2019-03-01T08:54:28.709Z,18.83
2019-03-01T08:56:55.001Z,16.07
2019-03-01T08:59:21.207Z,22.87
2019-03-01T09:01:47.483Z,27.93
2019-03-01T09:04:17.330Z,26.03
2019-03-01T09:06:42.076Z,24.63
2019-03-01T09:09:08.792Z,26.53
2019-03-01T09:11:35.196Z,28.53
2019-03-01T09:14:01.501Z,14.17
2019-03-01T09:16:27.669Z,21.43
2019-03-01T09:18:53.935Z,16.27
2019-03-01T09:21:20.253Z,23.10
2019-03-01T09:23:48.033Z,31.03
2019-03-01T09:26:16.673Z,31.87
2019-03-01T09:28:42.686Z,33.93
2019-03-01T09:31:08.871Z,16.53
2019-03-01T09:33:35.141Z,20.70
2019-03-01T09:36:03.249Z,25.57
2019-03-01T09:38:29.522Z,24.17
2019-03-01T09:40:57.433Z,23.57
2019-03-01T09:43:24.717Z,26.07
2019-03-01T09:45:52.183Z,23.30
2019-03-01T09:48:18.447Z,27.00
2019-03-01T09:50:44.648Z,24.67
2019-03-01T09:53:10.919Z,29.90
2019-03-01T09:55:37.680Z,27.63
2019-03-01T09:58:05.020Z,29.20
2019-03-01T10:00:41.020Z,26.37
2019-03-01T10:03:07.344Z,27.97
2019-03-01T10:05:33.651Z,24.77
2019-03-01T10:08:02.204Z,21.07
2019-03-01T10:10:30.715Z,24.60
2019-03-01T10:12:56.879Z,20.60
2019-03-01T10:15:23.139Z,22.50
2019-03-01T10:17:49.329Z,24.53
2019-03-01T10:20:15.479Z,24.93
2019-03-01T10:22:41.737Z,22.33
2019-03-01T10:25:11.043Z,25.63
2019-03-01T10:27:37.200Z,19.43
2019-03-01T10:30:25.037Z,20.33
2019-03-01T10:32:51.299Z,21.00
2019-03-01T10:35:17.466Z,23.70
2019-03-01T10:37:43.666Z,15.57
2019-03-01T10:40:23.220Z,29.43
2019-03-01T10:42:49.412Z,19.53
2019-03-01T10:45:18.071Z,30.67
2019-03-01T10:47:44.331Z,25.53
2019-03-01T10:50:11.421Z,22.03
2019-03-01T10:52:37.603Z,22.50
2019-03-01T10:55:07.274Z,22.90
2019-03-01T10:57:33.465Z,21.03
2019-03-01T10:59:59.625Z,22.47
2019-03-01T11:02:25.784Z,30.00
2019-03-01T11:04:52.019Z,15.07
2019-03-01T11:07:18.312Z,17.57
2019-03-01T11:09:44.593Z,18.33
2019-03-01T11:12:10.770Z,19.33
2019-03-01T11:14:36.927Z,20.20
2019-03-01T11:17:03.084Z,20.83
2019-03-01T11:19:29.276Z,20.17
2019-03-01T11:21:55.531Z,21.67
2019-03-01T11:24:21.693Z,28.53
2019-03-01T11:26:47.908Z,20.10
2019-03-01T11:29:14.123Z,18.10
2019-03-01T11:31:40.282Z,19.00
2019-03-01T11:34:06.836Z,18.13
2019-03-01T11:36:32.996Z,21.20
2019-03-01T11:38:59.166Z,19.47
2019-03-01T11:41:25.369Z,32.80
2019-03-01T11:43:51.529Z,19.27
2019-03-01T11:46:17.687Z,18.40
2019-03-01T11:48:43.883Z,19.07
2019-03-01T11:51:10.048Z,21.97
2019-03-01T11:53:36.314Z,21.73
2019-03-01T11:56:02.509Z,17.87
2019-03-01T11:58:28.688Z,16.53
2019-03-01T12:00:54.961Z,14.63
2019-03-01T12:03:23.601Z,14.67
2019-03-01T12:05:51.139Z,18.30
2019-03-01T12:08:17.348Z,18.90
2019-03-01T12:10:45.377Z,16.47
2019-03-01T12:13:11.544Z,20.50
2019-03-01T12:15:37.802Z,19.20
2019-03-01T12:18:04.184Z,17.60
2019-03-01T12:20:31.357Z,20.63
2019-03-01T12:22:57.521Z,20.30
2019-03-01T12:25:23.815Z,18.60
2019-03-01T12:27:50.075Z,19.50
2019-03-01T12:30:20.956Z,19.30
2019-03-01T12:32:47.452Z,22.83
2019-03-01T12:35:13.738Z,23.27
2019-03-01T12:37:41.819Z,23.83
2019-03-01T12:40:28.868Z,19.60
2019-03-01T12:42:55.127Z,26.00
2019-03-01T12:45:21.284Z,23.47
2019-03-01T12:47:47.471Z,25.97
2019-03-01T12:50:13.746Z,21.43
2019-03-01T12:52:39.921Z,25.50
2019-03-01T12:55:09.408Z,21.67
2019-03-01T12:57:35.667Z,23.10
2019-03-01T13:00:02.129Z,23.57
2019-03-01T13:02:28.706Z,25.73
2019-03-01T13:04:54.929Z,25.23
2019-03-01T13:07:21.085Z,24.43
2019-03-01T13:09:47.279Z,23.07
2019-03-01T13:12:13.593Z,21.60
2019-03-01T13:14:40.316Z,20.20
2019-03-01T13:17:06.649Z,24.27
2019-03-01T13:19:32.900Z,21.87
2019-03-01T13:21:59.057Z,26.17
2019-03-01T13:24:25.244Z,21.63
2019-03-01T13:26:51.404Z,21.27
2019-03-01T13:29:19.082Z,22.83
2019-03-01T13:31:47.117Z,22.83
2019-03-01T13:34:14.503Z,25.30
2019-03-01T13:36:40.831Z,18.03
2019-03-01T13:39:10.454Z,25.47
2019-03-01T13:41:37.273Z,23.17
2019-03-01T13:44:04.436Z,20.03
2019-03-01T13:46:33.380Z,18.73
2019-03-01T13:48:58.797Z,24.43
2019-03-01T13:51:24.951Z,26.33
2019-03-01T13:53:51.144Z,26.47
2019-03-01T13:56:17.405Z,19.83
2019-03-01T13:58:43.575Z,18.77
2019-03-01T14:01:09.877Z,16.90
2019-03-01T14:03:36.045Z,25.47
2019-03-01T14:06:02.361Z,19.53
2019-03-01T14:08:28.733Z,20.10
2019-03-01T14:10:55.009Z,16.13
2019-03-01T14:13:21.219Z,13.97
2019-03-01T14:15:47.431Z,21.33
2019-03-01T14:18:13.710Z,13.67
2019-03-01T14:20:39.887Z,17.40
2019-03-01T14:23:06.104Z,17.93
2019-03-01T14:25:32.397Z,21.47
2019-03-01T14:27:58.656Z,18.83
2019-03-01T14:30:30.340Z,20.13
2019-03-01T14:32:56.849Z,22.53
2019-03-01T14:35:25.980Z,23.13
2019-03-01T14:37:54.236Z,18.63
2019-03-01T14:40:19.159Z,14.73
2019-03-01T14:42:47.645Z,20.90
2019-03-01T14:45:25.733Z,23.03
2019-03-01T14:47:52.214Z,14.20
2019-03-01T14:50:25.851Z,18.60
2019-03-01T14:52:56.663Z,17.80
2019-03-01T14:55:32.845Z,24.33
2019-03-01T14:58:08.448Z,15.60
2019-03-01T15:00:40.118Z,18.70
2019-03-01T15:03:26.531Z,17.07
2019-03-01T15:05:52.690Z,17.27
2019-03-01T15:08:24.845Z,19.17
2019-03-01T15:10:51.235Z,15.27
2019-03-01T15:13:17.396Z,20.67
2019-03-01T15:15:45.346Z,14.63
2019-03-01T15:18:11.541Z,16.77
2019-03-01T15:20:37.693Z,17.27
2019-03-01T15:23:04.056Z,21.77
2019-03-01T15:25:30.339Z,21.93
2019-03-01T15:27:56.494Z,17.93
2019-03-01T15:30:23.234Z,22.20
2019-03-01T15:32:49.644Z,20.20
2019-03-01T15:35:15.804Z,21.60
2019-03-01T15:37:41.960Z,17.77
2019-03-01T15:40:09.851Z,16.50
2019-03-01T15:42:36.044Z,20.70
2019-03-01T15:45:05.093Z,25.10
2019-03-01T15:47:32.229Z,25.57
2019-03-01T15:49:58.383Z,30.60
2019-03-01T15:52:24.648Z,26.77
2019-03-01T15:54:50.846Z,15.77
2019-03-01T15:57:19.003Z,20.23
2019-03-01T15:59:47.802Z,20.17
2019-03-01T16:02:13.271Z,22.03
2019-03-01T16:04:39.429Z,14.77
2019-03-01T16:07:05.603Z,17.73
2019-03-01T16:09:31.794Z,16.23
2019-03-01T16:11:57.957Z,19.67
2019-03-01T16:14:25.083Z,17.10
2019-03-01T16:16:51.454Z,24.53
2019-03-01T16:19:17.709Z,23.83
2019-03-01T16:21:43.872Z,25.90
2019-03-01T16:24:10.066Z,79.53
2019-03-01T16:26:37.244Z,20.50
2019-03-01T16:29:03.944Z,26.70
2019-03-01T16:31:32.203Z,19.73
2019-03-01T16:34:00.905Z,24.20
2019-03-01T16:36:30.242Z,51.00
2019-03-01T16:38:56.634Z,29.00
2019-03-01T16:41:22.794Z,30.20
2019-03-01T16:43:49.052Z,25.90
2019-03-01T16:46:15.238Z,27.63
2019-03-01T16:48:41.413Z,25.47
2019-03-01T16:51:07.677Z,18.97
2019-03-01T16:53:36.738Z,24.60
2019-03-01T16:56:03.460Z,25.70
2019-03-01T16:58:29.696Z,26.73
2019-03-01T17:00:55.892Z,30.27
2019-03-01T17:03:22.153Z,29.13
2019-03-01T17:05:50.321Z,31.03
2019-03-01T17:08:16.607Z,29.13
2019-03-01T17:10:42.773Z,29.90
2019-03-01T17:13:12.404Z,39.43
2019-03-01T17:15:38.709Z,30.90
2019-03-01T17:18:04.880Z,29.53
2019-03-01T17:20:31.038Z,36.53
2019-03-01T17:22:59.778Z,33.53
2019-03-01T17:25:26.883Z,30.20
2019-03-01T17:27:53.451Z,34.17
2019-03-01T17:30:24.072Z,33.67
2019-03-01T17:32:50.242Z,32.87
2019-03-01T17:35:16.408Z,32.13
2019-03-01T17:37:43.099Z,29.80
2019-03-01T17:40:16.345Z,28.43
2019-03-01T17:42:42.525Z,30.57
2019-03-01T17:45:17.279Z,36.67
2019-03-01T17:47:45.430Z,33.33
2019-03-01T17:50:12.596Z,31.60
2019-03-01T17:52:38.918Z,45.03
2019-03-01T17:55:08.282Z,40.10
2019-03-01T17:57:34.450Z,39.13
2019-03-01T18:00:00.681Z,38.87
2019-03-01T18:02:26.849Z,51.97
2019-03-01T18:04:53.059Z,64.73
2019-03-01T18:07:19.389Z,85.97
2019-03-01T18:09:47.363Z,61.67
2019-03-01T18:12:13.533Z,65.60
2019-03-01T18:14:39.720Z,62.47
2019-03-01T18:17:07.780Z,68.70
2019-03-01T18:19:34.049Z,69.73
2019-03-01T18:22:02.057Z,51.77
2019-03-01T18:24:28.233Z,43.13
2019-03-01T18:26:54.686Z,42.27
2019-03-01T18:29:21.772Z,42.97
2019-03-01T18:31:50.795Z,48.10
2019-03-01T18:34:16.953Z,39.20
2019-03-01T18:36:43.144Z,42.93
2019-03-01T18:39:09.796Z,41.93
2019-03-01T18:41:35.948Z,41.33
2019-03-01T18:44:02.254Z,46.47
2019-03-01T18:46:28.419Z,52.83
2019-03-01T18:48:54.583Z,42.63
2019-03-01T18:51:20.782Z,50.07
2019-03-01T18:53:46.958Z,48.97
2019-03-01T18:56:13.103Z,44.97
2019-03-01T18:58:39.458Z,45.47
2019-03-01T19:01:07.821Z,78.87
2019-03-01T19:03:36.472Z,50.67
2019-03-01T19:06:04.746Z,52.00
2019-03-01T19:08:31.202Z,51.77
2019-03-01T19:10:59.646Z,56.03
2019-03-01T19:13:25.800Z,48.80
2019-03-01T19:15:54.552Z,43.57
2019-03-01T19:18:20.312Z,47.30
2019-03-01T19:20:49.248Z,53.53
2019-03-01T19:23:15.413Z,48.63
2019-03-01T19:25:41.826Z,47.93
2019-03-01T19:28:08.029Z,56.80
2019-03-01T19:30:34.313Z,44.33
2019-03-01T19:33:02.253Z,49.90
2019-03-01T19:35:29.843Z,47.63
2019-03-01T19:37:56.409Z,48.47
2019-03-01T19:40:23.065Z,49.23
2019-03-01T19:42:49.251Z,45.30
2019-03-01T19:45:16.820Z,50.53
2019-03-01T19:47:43.088Z,43.30
2019-03-01T19:50:26.592Z,54.90
2019-03-01T19:52:52.744Z,50.03
2019-03-01T19:55:19.011Z,48.67
2019-03-01T19:57:45.304Z,51.40
2019-03-01T20:00:20.730Z,51.33
2019-03-01T20:02:47.039Z,44.43
2019-03-01T20:05:18.287Z,48.53
2019-03-01T20:07:44.434Z,46.60
2019-03-01T20:10:15.999Z,48.23
2019-03-01T20:12:42.388Z,47.60
2019-03-01T20:15:14.365Z,47.33
2019-03-01T20:17:44.357Z,48.60
2019-03-01T20:20:12.232Z,45.63
2019-03-01T20:22:38.443Z,45.93
2019-03-01T20:25:08.139Z,38.47
2019-03-01T20:27:35.528Z,44.80
2019-03-01T20:30:05.274Z,40.17
2019-03-01T20:32:31.464Z,44.10
2019-03-01T20:34:57.725Z,42.43
2019-03-01T20:37:24.757Z,44.33
2019-03-01T20:39:52.240Z,49.30
2019-03-01T20:42:23.571Z,50.83
2019-03-01T20:44:46.561Z,44.00
2019-03-01T20:47:15.500Z,39.70
2019-03-01T20:49:40.936Z,51.20
2019-03-01T20:52:07.189Z,44.20
2019-03-01T20:54:33.474Z,51.33
2019-03-01T20:57:01.511Z,41.73
2019-03-01T20:59:27.687Z,38.03
2019-03-01T21:01:55.899Z,43.07
2019-03-01T21:04:21.998Z,41.57
2019-03-01T21:06:48.314Z,38.67
2019-03-01T21:09:14.503Z,42.37
2019-03-01T21:11:42.641Z,41.63
2019-03-01T21:14:10.781Z,43.97
2019-03-01T21:16:37.025Z,40.33
2019-03-01T21:19:05.721Z,56.53
2019-03-01T21:21:31.358Z,42.27
2019-03-01T21:23:57.725Z,41.27
2019-03-01T21:26:24.141Z,38.03
2019-03-01T21:28:50.777Z,44.77
2019-03-01T21:31:17.022Z,40.50
2019-03-01T21:33:43.176Z,42.40
2019-03-01T21:36:09.342Z,40.77
2019-03-01T21:38:35.628Z,50.13
2019-03-01T21:41:01.789Z,52.40
2019-03-01T21:43:33.866Z,55.97
2019-03-01T21:46:00.924Z,57.93
2019-03-01T21:48:27.179Z,65.33
2019-03-01T21:50:53.341Z,37.57
2019-03-01T21:53:19.537Z,42.43
2019-03-01T21:55:46.114Z,41.03
2019-03-01T21:58:12.263Z,40.97
2019-03-01T22:00:39.058Z,31.53
2019-03-01T22:03:05.225Z,36.97
2019-03-01T22:05:31.482Z,32.63
2019-03-01T22:07:57.782Z,29.43
2019-03-01T22:10:23.944Z,31.80
2019-03-01T22:12:50.300Z,31.97
2019-03-01T22:15:27.980Z,28.57
2019-03-01T22:17:55.037Z,34.83
2019-03-01T22:20:21.696Z,27.23
2019-03-01T22:22:47.898Z,31.67
2019-03-01T22:25:14.155Z,28.83
2019-03-01T22:27:41.812Z,31.00
2019-03-01T22:30:29.284Z,29.27
2019-03-01T22:32:55.558Z,37.77
2019-03-01T22:35:21.725Z,31.60
2019-03-01T22:37:47.923Z,34.17
2019-03-01T22:40:14.080Z,33.23
2019-03-01T22:42:40.239Z,41.30
2019-03-01T22:45:14.553Z,31.17
2019-03-01T22:47:40.747Z,28.57
2019-03-01T22:50:13.019Z,39.00
2019-03-01T22:52:39.213Z,32.93
2019-03-01T22:55:07.974Z,36.67
2019-03-01T22:57:34.129Z,27.87
2019-03-01T23:00:00.315Z,34.40
2019-03-01T23:02:26.486Z,29.53
2019-03-01T23:04:52.645Z,35.07
2019-03-01T23:07:18.836Z,31.90
2019-03-01T23:09:46.430Z,28.50
2019-03-01T23:12:14.808Z,35.63
2019-03-01T23:14:41.257Z,26.97
2019-03-01T23:17:07.527Z,25.27
2019-03-01T23:19:33.679Z,23.43
2019-03-01T23:21:59.870Z,27.07
2019-03-01T23:24:26.027Z,24.03
2019-03-01T23:26:53.637Z,24.83
2019-03-01T23:29:20.331Z,25.73
2019-03-01T23:31:46.509Z,22.27
2019-03-01T23:34:12.774Z,27.10
2019-03-01T23:36:38.960Z,26.40
2019-03-01T23:39:05.228Z,36.47
2019-03-01T23:41:31.399Z,27.13
2019-03-01T23:43:57.584Z,23.90
2019-03-01T23:46:25.616Z,26.43
2019-03-01T23:48:51.809Z,20.60
2019-03-01T23:51:18.000Z,24.23
2019-03-01T23:53:44.252Z,19.30
2019-03-01T23:56:10.419Z,18.03
2019-03-01T23:58:36.607Z,24.73
